Fall River, Massachusetts
Current Conditions -  °F | °C
As of 3:19 AM on Thursday 25 Dec 2014 (Local Time) from KEWB Reporting Station
Light Rain Light Rain  
Wind Chill: 60°   Ceiling: 200
Heat Index: 60°   Visibility: 4mi
Dew Point: 60°   Wind: 20mph
Humidity: 100%   Direction: 210°SSW
Pressure: 29.56"   Gusts: 26mph
Location:  41.7°N, 71.14°W
Report Text: KEWB 250819Z AUTO 21017G23KT 4SM -RA BR OVC002 16/16 A2956 RMK AO2 RAB12 P0001 T01560156 $
Loading
Personal Weather Stations






























Interactive Weather Map New forecast layout! Learn more

10-Day Weather Forecast

Advertisements
Track Severe Weather on mobile